createdAt,value
2022-09-01T00:02:00.213Z,18.90
2022-09-01T00:04:26.765Z,19.00
2022-09-01T00:06:53.267Z,18.90
2022-09-01T00:09:19.737Z,18.80
2022-09-01T00:11:50.347Z,18.80
2022-09-01T00:14:29.546Z,18.80
2022-09-01T00:16:57.382Z,18.70
2022-09-01T00:19:24.070Z,18.70
2022-09-01T00:21:50.528Z,18.70
2022-09-01T00:24:53.216Z,18.70
2022-09-01T00:27:10.326Z,18.60
2022-09-01T00:29:36.805Z,18.60
2022-09-01T00:32:03.276Z,18.60
2022-09-01T00:34:29.795Z,18.60
2022-09-01T00:36:56.274Z,18.60
2022-09-01T00:39:22.731Z,18.60
2022-09-01T00:41:49.199Z,18.70
2022-09-01T00:44:15.659Z,18.60
2022-09-01T00:46:49.673Z,18.50
2022-09-01T00:49:16.809Z,18.40
2022-09-01T00:51:43.286Z,18.40
2022-09-01T00:54:09.745Z,18.40
2022-09-01T00:56:36.212Z,18.30
2022-09-01T00:59:02.694Z,18.30
2022-09-01T01:01:29.206Z,18.30
2022-09-01T01:03:55.686Z,18.30
2022-09-01T01:06:22.137Z,18.30
2022-09-01T01:08:48.605Z,18.30
2022-09-01T01:11:15.071Z,18.30
2022-09-01T01:13:42.393Z,18.30
2022-09-01T01:16:08.857Z,18.20
2022-09-01T01:18:35.336Z,18.20
2022-09-01T01:21:01.797Z,18.20
2022-09-01T01:23:28.273Z,18.20
2022-09-01T01:25:54.744Z,18.10
2022-09-01T01:28:21.362Z,18.10
2022-09-01T01:30:48.055Z,18.10
2022-09-01T01:33:14.536Z,18.10
2022-09-01T01:35:42.581Z,18.10
2022-09-01T01:38:09.034Z,18.00
2022-09-01T01:40:35.566Z,18.00
2022-09-01T01:43:02.052Z,18.00
2022-09-01T01:45:28.526Z,18.00
2022-09-01T01:47:54.992Z,18.00
2022-09-01T01:50:21.470Z,17.90
2022-09-01T01:52:47.938Z,17.90
2022-09-01T01:55:19.656Z,17.90
2022-09-01T01:57:46.120Z,17.90
2022-09-01T02:00:12.591Z,17.90
2022-09-01T02:02:39.127Z,17.90
2022-09-01T02:05:05.878Z,17.90
2022-09-01T02:07:32.342Z,17.90
2022-09-01T02:10:00.302Z,17.90
2022-09-01T02:12:26.760Z,17.90
2022-09-01T02:14:53.232Z,17.90
2022-09-01T02:17:19.685Z,17.80
2022-09-01T02:19:46.170Z,17.80
2022-09-01T02:22:12.633Z,17.90
2022-09-01T02:24:39.097Z,17.80
2022-09-01T02:27:05.577Z,17.70
2022-09-01T02:29:35.099Z,17.70
2022-09-01T02:32:09.925Z,17.70
2022-09-01T02:34:36.374Z,17.70
2022-09-01T02:37:02.846Z,17.70
2022-09-01T02:39:29.303Z,17.70
2022-09-01T02:41:55.778Z,17.60
2022-09-01T02:44:22.235Z,17.60
2022-09-01T02:46:48.699Z,17.60
2022-09-01T02:49:15.162Z,17.60
2022-09-01T02:51:41.667Z,17.60
2022-09-01T02:54:08.128Z,17.60
2022-09-01T02:56:34.621Z,17.50
2022-09-01T02:59:01.097Z,17.50
2022-09-01T03:01:27.672Z,17.50
2022-09-01T03:03:54.191Z,17.50
2022-09-01T03:06:20.660Z,17.50
2022-09-01T03:08:47.122Z,17.40
2022-09-01T03:11:13.608Z,17.40
2022-09-01T03:13:40.089Z,17.50
2022-09-01T03:16:06.607Z,17.40
2022-09-01T03:18:33.113Z,17.40
2022-09-01T03:20:59.585Z,17.30
2022-09-01T03:23:26.043Z,17.40
2022-09-01T03:25:52.551Z,17.40
2022-09-01T03:28:19.252Z,17.40
2022-09-01T03:30:45.819Z,17.40
2022-09-01T03:33:12.311Z,17.40
2022-09-01T03:35:38.780Z,17.30
2022-09-01T03:38:05.257Z,17.30
2022-09-01T03:40:31.742Z,17.30
2022-09-01T03:42:58.218Z,17.30
2022-09-01T03:45:24.720Z,17.30
2022-09-01T03:47:51.213Z,17.30
2022-09-01T03:50:17.680Z,17.30
2022-09-01T03:52:44.150Z,17.40
2022-09-01T03:55:10.608Z,17.40
2022-09-01T03:57:37.081Z,17.40
2022-09-01T04:00:04.480Z,17.40
2022-09-01T04:02:31.584Z,17.40
2022-09-01T04:04:58.097Z,17.30
2022-09-01T04:07:24.574Z,17.40
2022-09-01T04:09:51.034Z,17.40
2022-09-01T04:12:17.502Z,17.40
2022-09-01T04:14:43.969Z,17.30
2022-09-01T04:17:10.453Z,17.30
2022-09-01T04:19:37.184Z,17.20
2022-09-01T04:22:03.736Z,17.10
2022-09-01T04:24:30.208Z,17.10
2022-09-01T04:26:56.666Z,17.10
2022-09-01T04:29:23.140Z,17.10
2022-09-01T04:31:49.642Z,17.10
2022-09-01T04:34:16.156Z,17.10
2022-09-01T04:36:42.615Z,17.10
2022-09-01T04:39:10.090Z,17.10
2022-09-01T06:21:24.094Z,17.60
2022-09-01T06:23:50.558Z,17.70
2022-09-01T06:26:17.037Z,17.80
2022-09-01T06:28:43.505Z,17.90
2022-09-01T06:31:10.022Z,17.90
2022-09-01T06:33:36.533Z,18.00
2022-09-01T06:36:03.009Z,18.00
2022-09-01T06:38:29.474Z,18.00
2022-09-01T06:40:56.010Z,18.00
2022-09-01T06:43:22.691Z,18.10
2022-09-01T06:45:49.345Z,18.10
2022-09-01T06:48:15.820Z,18.10
2022-09-01T06:53:32.487Z,18.30
2022-09-01T06:55:59.410Z,18.40
2022-09-01T06:58:25.878Z,18.40
2022-09-01T07:00:52.353Z,18.50
2022-09-01T07:03:19.585Z,18.50
2022-09-01T07:06:02.326Z,18.60
2022-09-01T07:08:29.200Z,18.60
2022-09-01T07:14:15.242Z,18.70
2022-09-01T07:16:31.854Z,18.80
2022-09-01T07:18:59.715Z,18.80
2022-09-01T07:24:12.637Z,18.90
2022-09-01T07:26:46.716Z,19.00
2022-09-01T07:29:13.611Z,19.10
2022-09-01T07:34:41.944Z,19.20
2022-09-01T07:38:46.982Z,19.30
2022-09-01T07:45:32.170Z,19.50
2022-09-01T07:47:58.702Z,19.60
2022-09-01T07:50:39.782Z,19.70
2022-09-01T07:53:08.079Z,19.70
2022-09-01T07:55:34.552Z,19.80
2022-09-01T07:58:01.011Z,19.90
2022-09-01T08:00:30.165Z,20.00
2022-09-01T08:02:58.057Z,20.10
2022-09-01T08:05:24.593Z,20.20
2022-09-01T08:07:52.221Z,20.30
2022-09-01T08:10:20.202Z,20.40
2022-09-01T08:12:47.008Z,20.60
2022-09-01T08:18:08.884Z,21.00
2022-09-01T08:20:35.425Z,21.20
2022-09-01T08:23:01.892Z,21.50
2022-09-01T08:25:28.360Z,21.70
2022-09-01T08:28:01.926Z,22.10
2022-09-01T08:30:28.429Z,22.40
2022-09-01T08:32:54.901Z,22.80
2022-09-01T08:35:21.380Z,23.10
2022-09-01T08:37:47.858Z,23.30
2022-09-01T08:40:14.369Z,23.60
2022-09-01T08:42:40.856Z,23.80
2022-09-01T08:45:07.326Z,24.00
2022-09-01T08:47:49.251Z,24.20
2022-09-01T08:50:20.233Z,24.40
2022-09-01T08:52:46.710Z,24.60
2022-09-01T08:55:13.185Z,24.80
2022-09-01T08:57:39.662Z,25.00
2022-09-01T09:00:06.121Z,25.20
2022-09-01T09:02:32.608Z,25.40
2022-09-01T09:04:59.081Z,25.60
2022-09-01T09:07:25.545Z,25.80
2022-09-01T09:09:54.203Z,25.80
2022-09-01T09:12:20.897Z,25.90
2022-09-01T09:14:47.350Z,25.90
2022-09-01T09:17:13.821Z,26.00
2022-09-01T09:19:40.276Z,26.10
2022-09-01T09:22:06.750Z,26.30
2022-09-01T09:24:39.281Z,26.50
2022-09-01T09:27:07.045Z,26.80
2022-09-01T09:29:36.142Z,27.00
2022-09-01T09:32:02.618Z,27.30
2022-09-01T09:34:29.086Z,27.40
2022-09-01T09:36:57.354Z,27.60
2022-09-01T09:39:23.933Z,27.70
2022-09-01T09:41:50.707Z,27.80
2022-09-01T09:44:17.221Z,28.00
2022-09-01T09:46:44.117Z,28.10
2022-09-01T09:49:10.819Z,28.20
2022-09-01T09:51:37.273Z,28.00
2022-09-01T09:54:03.745Z,27.70
2022-09-01T09:56:30.201Z,27.80
2022-09-01T09:58:59.581Z,28.00
2022-09-01T10:01:26.123Z,28.20
2022-09-01T10:03:52.781Z,28.50
2022-09-01T10:06:19.263Z,28.60
2022-09-01T10:08:46.178Z,28.60
2022-09-01T10:11:12.955Z,28.90
2022-09-01T10:13:39.450Z,29.10
2022-09-01T10:16:07.931Z,29.00
2022-09-01T10:18:36.084Z,28.80
2022-09-01T10:21:02.729Z,28.80
2022-09-01T10:23:31.357Z,28.90
2022-09-01T10:25:58.089Z,29.10
2022-09-01T10:28:25.358Z,29.40
2022-09-01T10:30:52.336Z,29.60
2022-09-01T10:33:20.779Z,29.60
2022-09-01T10:35:48.327Z,29.60
2022-09-01T10:38:14.825Z,29.80
2022-09-01T10:40:43.342Z,29.80
2022-09-01T10:43:12.400Z,29.70
2022-09-01T10:45:39.316Z,29.90
2022-09-01T10:48:05.808Z,30.00
2022-09-01T10:50:35.402Z,30.00
2022-09-01T10:53:02.194Z,30.40
2022-09-01T10:55:28.697Z,30.50
2022-09-01T10:57:55.902Z,30.70
2022-09-01T11:00:38.079Z,30.90
2022-09-01T11:03:29.917Z,31.00
2022-09-01T11:05:52.731Z,31.10
2022-09-01T11:08:19.280Z,31.40
2022-09-01T11:10:47.430Z,31.50
2022-09-01T11:13:15.830Z,31.40
2022-09-01T11:15:42.320Z,31.30
2022-09-01T11:18:08.822Z,31.20
2022-09-01T11:20:35.281Z,31.30
2022-09-01T11:23:03.454Z,31.30
2022-09-01T11:25:38.785Z,31.40
2022-09-01T11:28:05.500Z,31.40
2022-09-01T11:30:31.959Z,31.50
2022-09-01T11:32:58.422Z,31.60
2022-09-01T11:35:24.976Z,31.60
2022-09-01T11:37:51.431Z,31.70
2022-09-01T11:40:18.849Z,31.60
2022-09-01T11:42:46.714Z,31.70
2022-09-01T11:45:20.571Z,31.70
2022-09-01T11:47:48.425Z,31.70
2022-09-01T11:50:14.893Z,32.00
2022-09-01T11:52:41.359Z,32.10
2022-09-01T11:55:07.842Z,32.20
2022-09-01T11:57:34.324Z,32.40
2022-09-01T12:00:00.804Z,32.40
2022-09-01T12:02:27.335Z,32.10
2022-09-01T12:04:53.881Z,32.00
2022-09-01T12:07:20.348Z,32.00
2022-09-01T12:09:46.828Z,31.80
2022-09-01T12:12:13.329Z,31.80
2022-09-01T12:15:04.429Z,32.00
2022-09-01T12:17:26.306Z,32.20
2022-09-01T12:19:52.781Z,32.20
2022-09-01T12:22:19.255Z,32.50
2022-09-01T12:24:45.719Z,32.80
2022-09-01T12:27:12.195Z,33.10
2022-09-01T12:29:39.012Z,33.20
2022-09-01T12:32:05.550Z,33.30
2022-09-01T12:34:32.055Z,33.20
2022-09-01T12:36:58.531Z,32.90
2022-09-01T12:39:25.003Z,32.70
2022-09-01T12:41:51.484Z,32.40
2022-09-01T12:44:20.898Z,32.40
2022-09-01T12:46:50.593Z,32.50
2022-09-01T12:49:17.059Z,32.70
2022-09-01T12:51:43.819Z,32.90
2022-09-01T12:54:10.364Z,33.10
2022-09-01T12:56:36.837Z,33.20
2022-09-01T12:59:03.303Z,33.10
2022-09-01T13:01:29.896Z,33.10
2022-09-01T13:03:56.778Z,33.00
2022-09-01T13:06:23.363Z,33.00
2022-09-01T13:08:49.849Z,33.20
2022-09-01T13:11:16.333Z,33.20
2022-09-01T13:13:43.054Z,33.20
2022-09-01T13:16:09.601Z,33.30
2022-09-01T13:19:10.335Z,33.50
2022-09-01T13:21:22.576Z,33.70
2022-09-01T13:23:49.052Z,33.40
2022-09-01T13:26:15.516Z,33.00
2022-09-01T13:28:41.989Z,32.90
2022-09-01T13:34:10.661Z,32.80
2022-09-01T13:36:44.486Z,32.90
2022-09-01T13:39:13.322Z,33.10
2022-09-01T13:41:39.799Z,33.30
2022-09-01T13:44:06.269Z,33.50
2022-09-01T13:46:32.732Z,33.60
2022-09-01T13:49:03.098Z,33.50
2022-09-01T13:51:29.865Z,33.40
2022-09-01T13:53:56.341Z,33.30
2022-09-01T13:56:22.824Z,33.20
2022-09-01T13:58:49.302Z,33.20
2022-09-01T14:01:15.871Z,33.30
2022-09-01T14:03:42.416Z,33.40
2022-09-01T14:06:08.874Z,33.50
2022-09-01T14:08:35.361Z,33.50
2022-09-01T14:11:01.822Z,33.30
2022-09-01T14:13:28.399Z,33.30
2022-09-01T14:15:54.963Z,33.10
2022-09-01T14:18:21.536Z,32.90
2022-09-01T14:20:48.106Z,32.50
2022-09-01T14:23:14.588Z,32.30
2022-09-01T14:25:41.045Z,32.50
2022-09-01T14:28:07.528Z,32.70
2022-09-01T14:30:33.993Z,32.90
2022-09-01T14:33:00.475Z,33.10
2022-09-01T14:35:26.936Z,32.90
2022-09-01T14:37:53.402Z,32.90
2022-09-01T14:40:20.963Z,33.10
2022-09-01T14:42:47.456Z,33.30
2022-09-01T14:45:13.940Z,33.30
2022-09-01T14:47:40.404Z,33.30
2022-09-01T14:52:38.556Z,33.40
2022-09-01T14:55:05.005Z,33.10
2022-09-01T14:57:37.898Z,32.60
2022-09-01T15:00:04.968Z,32.40
2022-09-01T15:02:31.442Z,32.40
2022-09-01T15:04:57.927Z,32.40
2022-09-01T15:07:24.415Z,32.30
2022-09-01T15:09:50.886Z,32.00
2022-09-01T15:12:17.359Z,31.80
2022-09-01T15:14:43.831Z,31.60
2022-09-01T15:17:10.296Z,31.40
2022-09-01T15:19:36.768Z,31.20
2022-09-01T15:22:03.225Z,30.90
2022-09-01T15:24:29.710Z,30.80
2022-09-01T15:26:56.168Z,30.80
2022-09-01T15:29:22.642Z,30.70
2022-09-01T15:31:49.139Z,30.60
2022-09-01T15:34:15.632Z,30.50
2022-09-01T15:36:42.091Z,30.40
2022-09-01T15:39:08.560Z,30.30
2022-09-01T15:41:35.022Z,30.20
2022-09-01T15:44:01.494Z,30.20
2022-09-01T15:46:28.020Z,30.20
2022-09-01T15:48:54.513Z,30.10
2022-09-01T15:51:22.292Z,30.10
2022-09-01T15:53:48.771Z,30.10
2022-09-01T15:56:15.232Z,30.20
2022-09-01T15:59:00.158Z,30.20
2022-09-01T16:01:27.903Z,30.10
2022-09-01T16:03:54.451Z,29.80
2022-09-01T16:06:20.918Z,29.50
2022-09-01T16:08:47.809Z,29.40
2022-09-01T16:11:14.283Z,29.60
2022-09-01T16:13:40.755Z,29.80
2022-09-01T16:16:07.277Z,30.00
2022-09-01T16:18:33.799Z,30.20
2022-09-01T16:21:00.275Z,30.30
2022-09-01T16:23:26.764Z,30.30
2022-09-01T16:25:53.232Z,30.30
2022-09-01T16:28:19.699Z,30.30
2022-09-01T16:30:46.169Z,30.40
2022-09-01T16:33:12.636Z,30.50
2022-09-01T16:35:39.113Z,30.50
2022-09-01T16:38:05.570Z,30.60
2022-09-01T16:40:32.084Z,30.70
2022-09-01T16:42:58.592Z,30.70
2022-09-01T16:45:25.059Z,30.70
2022-09-01T16:47:52.815Z,30.60
2022-09-01T16:50:19.284Z,30.50
2022-09-01T16:52:45.747Z,30.50
2022-09-01T16:55:12.231Z,30.60
2022-09-01T16:57:38.694Z,30.60
2022-09-01T17:00:05.639Z,30.60
2022-09-01T17:02:32.219Z,30.60
2022-09-01T17:04:58.740Z,30.60
2022-09-01T17:07:26.382Z,30.60
2022-09-01T17:09:56.248Z,30.50
2022-09-01T17:12:22.730Z,30.50
2022-09-01T17:14:49.199Z,30.40
2022-09-01T17:17:15.672Z,30.30
2022-09-01T17:19:42.479Z,30.20
2022-09-01T17:22:08.962Z,30.10
2022-09-01T17:24:35.427Z,29.90
2022-09-01T17:27:03.801Z,29.70
2022-09-01T17:29:30.263Z,29.60
2022-09-01T17:31:56.754Z,29.40
2022-09-01T17:34:23.238Z,29.20
2022-09-01T17:36:49.695Z,29.00
2022-09-01T17:39:16.170Z,28.90
2022-09-01T17:41:42.634Z,28.70
2022-09-01T17:44:09.113Z,28.70
2022-09-01T17:46:35.607Z,28.70
2022-09-01T17:49:02.092Z,28.60
2022-09-01T17:51:28.556Z,28.50
2022-09-01T17:53:55.025Z,28.40
2022-09-01T17:56:21.493Z,28.30
2022-09-01T17:58:47.955Z,28.30
2022-09-01T18:01:14.451Z,28.10
2022-09-01T18:03:40.919Z,28.00
2022-09-01T18:06:07.405Z,27.90
2022-09-01T18:08:33.861Z,27.80
2022-09-01T18:11:00.350Z,27.60
2022-09-01T18:13:42.471Z,27.50
2022-09-01T18:16:13.309Z,27.40
2022-09-01T18:18:39.807Z,27.20
2022-09-01T18:21:06.277Z,27.10
2022-09-01T18:23:32.737Z,27.00
2022-09-01T18:25:59.204Z,26.90
2022-09-01T18:28:25.666Z,26.80
2022-09-01T18:30:52.867Z,26.80
2022-09-01T18:33:19.645Z,26.60
2022-09-01T18:35:46.109Z,26.50
2022-09-01T18:38:12.567Z,26.40
2022-09-01T18:40:39.070Z,26.40
2022-09-01T18:43:05.560Z,26.30
2022-09-01T18:45:32.055Z,26.20
2022-09-01T18:47:58.534Z,26.00
2022-09-01T18:50:26.644Z,25.90
2022-09-01T18:52:53.124Z,25.80
2022-09-01T18:55:19.591Z,25.70
2022-09-01T18:57:46.104Z,25.60
2022-09-01T19:00:17.792Z,25.60
2022-09-01T19:02:45.847Z,25.50
2022-09-01T19:05:12.471Z,25.40
2022-09-01T19:07:38.995Z,25.40
2022-09-01T19:10:05.470Z,25.40
2022-09-01T19:12:31.930Z,25.30
2022-09-01T19:14:58.401Z,25.20
2022-09-01T19:17:24.868Z,25.20
2022-09-01T19:19:51.336Z,25.10
2022-09-01T19:22:17.793Z,25.10
2022-09-01T19:24:44.274Z,25.00
2022-09-01T19:27:10.745Z,24.90
2022-09-01T19:29:37.222Z,24.90
2022-09-01T19:32:03.701Z,24.80
2022-09-01T19:34:30.179Z,24.80
2022-09-01T19:36:56.645Z,24.70
2022-09-01T19:39:23.160Z,24.70
2022-09-01T19:41:49.625Z,24.60
2022-09-01T19:44:16.085Z,24.60
2022-09-01T19:46:42.614Z,24.50
2022-09-01T19:49:09.100Z,24.40
2022-09-01T19:51:36.040Z,24.40
2022-09-01T19:54:02.506Z,24.30
2022-09-01T19:56:28.980Z,24.20
2022-09-01T19:58:55.450Z,24.20
2022-09-01T20:01:22.044Z,24.10
2022-09-01T20:03:48.541Z,24.10
2022-09-01T20:06:15.088Z,24.00
2022-09-01T20:08:41.589Z,24.00
2022-09-01T20:11:08.052Z,23.90
2022-09-01T20:13:34.526Z,23.80
2022-09-01T20:16:01.008Z,23.80
2022-09-01T20:18:27.496Z,23.70
2022-09-01T20:20:53.960Z,23.60
2022-09-01T20:23:20.432Z,23.60
2022-09-01T20:25:46.888Z,23.60
2022-09-01T20:28:13.380Z,23.50
2022-09-01T20:30:39.922Z,23.50
2022-09-01T20:33:06.469Z,23.50
2022-09-01T20:35:36.294Z,23.50
2022-09-01T20:38:05.656Z,23.40
2022-09-01T20:40:32.197Z,23.40
2022-09-01T20:42:58.702Z,23.40
2022-09-01T20:45:25.211Z,23.30
2022-09-01T20:47:51.693Z,23.30
2022-09-01T20:50:18.161Z,23.20
2022-09-01T20:52:44.640Z,23.20
2022-09-01T20:55:11.104Z,23.20
2022-09-01T20:57:37.555Z,23.10
2022-09-01T21:00:04.187Z,23.10
2022-09-01T21:02:30.661Z,23.00
2022-09-01T21:04:57.202Z,23.00
2022-09-01T21:07:26.052Z,23.00
2022-09-01T21:09:54.576Z,22.90
2022-09-01T21:12:21.027Z,22.90
2022-09-01T21:14:47.505Z,22.80
2022-09-01T21:17:15.630Z,22.80
2022-09-01T21:19:44.064Z,22.80
2022-09-01T21:22:10.530Z,22.80
2022-09-01T21:24:36.999Z,22.70
2022-09-01T21:27:03.480Z,22.70
2022-09-01T21:29:29.932Z,22.70
2022-09-01T21:31:56.406Z,22.60
2022-09-01T21:34:22.861Z,22.60
2022-09-01T21:36:49.329Z,22.60
2022-09-01T21:39:20.033Z,22.50
2022-09-01T21:41:46.504Z,22.50
2022-09-01T21:44:12.973Z,22.40
2022-09-01T21:46:39.442Z,22.40
2022-09-01T21:49:05.901Z,22.40
2022-09-01T21:51:32.383Z,22.40
2022-09-01T21:53:58.841Z,22.30
2022-09-01T21:56:25.688Z,22.30
2022-09-01T21:58:52.495Z,22.30
2022-09-01T22:01:19.068Z,22.30
2022-09-01T22:03:45.601Z,22.30
2022-09-01T22:06:12.082Z,22.20
2022-09-01T22:08:38.565Z,22.20
2022-09-01T22:11:05.448Z,22.10
2022-09-01T22:13:31.914Z,22.00
2022-09-01T22:15:58.392Z,22.00
2022-09-01T22:18:24.867Z,22.00
2022-09-01T22:20:51.326Z,22.00
2022-09-01T22:23:17.948Z,21.90
2022-09-01T22:25:44.474Z,21.90
2022-09-01T22:28:10.949Z,21.80
2022-09-01T22:30:37.489Z,21.80
2022-09-01T22:33:04.001Z,21.70
2022-09-01T22:35:30.464Z,21.70
2022-09-01T22:37:56.938Z,21.60
2022-09-01T22:40:23.460Z,21.50
2022-09-01T22:42:49.963Z,21.50
2022-09-01T22:45:17.373Z,21.40
2022-09-01T22:47:43.845Z,21.40
2022-09-01T22:50:10.312Z,21.40
2022-09-01T22:52:36.793Z,21.30
2022-09-01T22:55:03.292Z,21.30
2022-09-01T22:57:29.804Z,21.30
2022-09-01T22:59:56.269Z,21.20
2022-09-01T23:02:22.807Z,21.20
2022-09-01T23:04:49.323Z,21.10
2022-09-01T23:07:15.797Z,21.10
2022-09-01T23:09:42.262Z,21.00
2022-09-01T23:12:08.741Z,20.90
2022-09-01T23:14:35.200Z,20.90
2022-09-01T23:17:01.693Z,20.90
2022-09-01T23:19:28.188Z,20.80
2022-09-01T23:21:54.661Z,20.80
2022-09-01T23:24:21.131Z,20.80
2022-09-01T23:26:47.591Z,20.70
2022-09-01T23:29:14.057Z,20.60
2022-09-01T23:31:40.567Z,20.60
2022-09-01T23:34:07.047Z,20.60
2022-09-01T23:36:33.515Z,20.60
2022-09-01T23:38:59.981Z,20.50
2022-09-01T23:41:26.438Z,20.40
2022-09-01T23:43:52.925Z,20.40
2022-09-01T23:46:19.444Z,20.40
2022-09-01T23:48:45.960Z,20.30
2022-09-01T23:51:12.427Z,20.20
2022-09-01T23:53:38.904Z,20.20
2022-09-01T23:56:05.365Z,20.20
2022-09-01T23:58:31.831Z,20.10
